createdAt,value
2019-05-26T00:01:38.312Z,4.40
2019-05-26T00:04:28.876Z,4.07
2019-05-26T00:07:30.201Z,3.97
2019-05-26T00:10:10.823Z,3.97
2019-05-26T00:13:00.757Z,4.17
2019-05-26T00:15:50.147Z,4.37
2019-05-26T00:18:40.076Z,4.13
2019-05-26T00:21:29.992Z,4.30
2019-05-26T00:24:20.214Z,3.80
2019-05-26T00:27:09.847Z,4.13
2019-05-26T00:30:01.071Z,4.00
2019-05-26T00:32:51.368Z,3.97
2019-05-26T00:35:41.857Z,4.17
2019-05-26T00:38:31.406Z,4.03
2019-05-26T00:41:21.806Z,3.90
2019-05-26T00:44:12.868Z,3.73
2019-05-26T00:47:03.436Z,4.63
2019-05-26T00:49:53.826Z,4.40
2019-05-26T00:52:43.917Z,3.97
2019-05-26T00:55:34.386Z,3.47
2019-05-26T00:58:24.076Z,3.57
2019-05-26T01:01:14.809Z,3.63
2019-05-26T01:04:05.052Z,3.87
2019-05-26T01:06:54.889Z,3.73
2019-05-26T01:09:44.486Z,3.63
2019-05-26T01:12:34.741Z,3.90
2019-05-26T01:15:25.612Z,4.13
2019-05-26T01:18:15.756Z,4.20
2019-05-26T01:21:05.676Z,3.27
2019-05-26T01:23:55.508Z,3.80
2019-05-26T01:26:45.192Z,4.70
2019-05-26T01:29:35.432Z,4.37
2019-05-26T01:32:25.467Z,4.20
2019-05-26T01:35:15.501Z,4.50
2019-05-26T01:38:22.435Z,3.97
2019-05-26T01:40:57.792Z,4.47
2019-05-26T01:43:47.716Z,4.13
2019-05-26T01:46:37.814Z,4.40
2019-05-26T01:49:27.756Z,4.33
2019-05-26T01:52:17.892Z,4.10
2019-05-26T01:55:07.947Z,4.30
2019-05-26T01:57:57.908Z,3.97
2019-05-26T02:03:51.691Z,3.43
2019-05-26T02:06:42.354Z,3.90
2019-05-26T02:09:31.867Z,3.50
2019-05-26T02:12:22.190Z,3.23
2019-05-26T02:15:13.676Z,3.43
2019-05-26T02:18:03.743Z,3.10
2019-05-26T02:20:54.315Z,2.97
2019-05-26T02:23:44.261Z,2.90
2019-05-26T02:26:34.026Z,2.93
2019-05-26T02:29:24.273Z,3.23
2019-05-26T02:32:14.327Z,3.30
2019-05-26T02:35:06.021Z,3.33
2019-05-26T02:37:56.007Z,3.00
2019-05-26T02:40:46.159Z,2.90
2019-05-26T02:43:36.716Z,3.57
2019-05-26T02:46:26.711Z,2.83
2019-05-26T02:49:18.251Z,3.07
2019-05-26T02:52:07.886Z,3.87
2019-05-26T02:54:57.996Z,3.90
2019-05-26T02:57:47.955Z,3.40
2019-05-26T03:00:43.437Z,3.93
2019-05-26T03:03:34.501Z,3.80
2019-05-26T03:06:27.276Z,3.53
2019-05-26T03:09:23.163Z,3.40
2019-05-26T03:12:10.955Z,3.53
2019-05-26T03:15:01.570Z,3.53
2019-05-26T03:17:53.711Z,3.93
2019-05-26T03:20:44.651Z,3.43
2019-05-26T03:23:34.360Z,3.43
2019-05-26T03:26:27.917Z,3.47
2019-05-26T03:29:18.591Z,4.57
2019-05-26T03:32:07.854Z,3.63
2019-05-26T03:34:58.001Z,4.33
2019-05-26T03:37:48.233Z,4.00
2019-05-26T03:40:38.273Z,4.00
2019-05-26T03:43:28.716Z,3.83
2019-05-26T03:46:22.544Z,3.13
2019-05-26T03:49:12.222Z,3.20
2019-05-26T03:52:02.518Z,4.00
2019-05-26T03:54:53.517Z,3.77
2019-05-26T03:57:43.755Z,3.90
2019-05-26T04:00:33.990Z,4.03
2019-05-26T04:03:24.351Z,4.00
2019-05-26T04:06:14.407Z,3.67
2019-05-26T04:09:06.315Z,4.17
2019-05-26T04:11:56.306Z,3.77
2019-05-26T04:14:46.472Z,4.50
2019-05-26T04:17:36.724Z,4.40
2019-05-26T04:20:26.739Z,4.53
2019-05-26T04:23:17.168Z,4.37
2019-05-26T04:26:07.638Z,4.27
2019-05-26T04:28:57.352Z,4.57
2019-05-26T04:31:47.692Z,4.40
2019-05-26T04:34:37.932Z,4.17
2019-05-26T04:37:28.079Z,4.30
2019-05-26T04:40:27.841Z,4.60
2019-05-26T04:43:14.589Z,4.33
2019-05-26T04:46:02.315Z,4.57
2019-05-26T04:48:52.634Z,4.43
2019-05-26T04:51:43.117Z,4.20
2019-05-26T04:54:33.481Z,3.50
2019-05-26T04:57:23.276Z,4.00
2019-05-26T05:00:14.230Z,3.83
2019-05-26T05:03:03.758Z,3.47
2019-05-26T05:05:54.061Z,3.40
2019-05-26T05:08:44.011Z,2.90
2019-05-26T05:11:35.766Z,3.30
2019-05-26T05:14:27.020Z,3.23
2019-05-26T05:17:17.191Z,3.03
2019-05-26T05:20:07.551Z,2.70
2019-05-26T05:22:57.711Z,3.30
2019-05-26T05:25:47.760Z,2.90
2019-05-26T05:28:37.548Z,2.77
2019-05-26T05:31:27.756Z,3.20
2019-05-26T05:34:17.679Z,2.97
2019-05-26T05:37:07.705Z,3.33
2019-05-26T05:39:57.250Z,2.40
2019-05-26T05:42:46.891Z,2.53
2019-05-26T05:45:37.177Z,1.93
2019-05-26T05:48:27.300Z,2.30
2019-05-26T05:51:17.189Z,2.90
2019-05-26T05:54:07.430Z,2.50
2019-05-26T05:56:57.374Z,2.80
2019-05-26T05:59:49.196Z,2.10
2019-05-26T06:02:38.830Z,2.10
2019-05-26T06:05:28.715Z,2.33
2019-05-26T06:08:19.306Z,2.30
2019-05-26T06:11:16.606Z,2.27
2019-05-26T06:14:00.171Z,2.57
2019-05-26T06:16:50.956Z,1.87
2019-05-26T06:19:41.150Z,1.30
2019-05-26T06:22:31.456Z,1.70
2019-05-26T06:25:21.380Z,1.90
2019-05-26T06:28:12.235Z,2.03
2019-05-26T06:31:02.235Z,1.43
2019-05-26T06:33:52.716Z,1.90
2019-05-26T06:36:42.793Z,1.97
2019-05-26T06:39:32.632Z,1.83
2019-05-26T06:42:22.795Z,2.03
2019-05-26T06:45:12.991Z,2.03
2019-05-26T06:48:03.224Z,1.90
2019-05-26T06:50:53.534Z,2.20
2019-05-26T06:53:44.076Z,1.77
2019-05-26T06:56:33.995Z,1.83
2019-05-26T06:59:23.853Z,1.53
2019-05-26T07:02:14.906Z,1.80
2019-05-26T07:05:06.088Z,1.67
2019-05-26T07:07:55.493Z,2.13
2019-05-26T07:10:45.496Z,2.10
2019-05-26T07:13:35.305Z,2.00
2019-05-26T07:16:37.616Z,1.70
2019-05-26T07:19:16.389Z,1.63
2019-05-26T07:22:07.215Z,1.97
2019-05-26T07:24:56.913Z,1.90
2019-05-26T07:27:47.490Z,2.10
2019-05-26T07:30:37.466Z,2.00
2019-05-26T07:33:27.831Z,2.10
2019-05-26T07:36:17.995Z,2.23
2019-05-26T07:39:09.977Z,2.37
2019-05-26T07:42:10.150Z,2.53
2019-05-26T07:44:53.291Z,1.72
2019-05-26T07:47:43.331Z,2.13
2019-05-26T07:50:32.765Z,2.40
2019-05-26T07:53:23.235Z,2.30
2019-05-26T07:56:13.855Z,2.30
2019-05-26T07:59:04.206Z,2.17
2019-05-26T08:01:54.261Z,2.37
2019-05-26T08:04:43.891Z,2.33
2019-05-26T08:07:35.146Z,2.35
2019-05-26T08:10:25.351Z,1.70
2019-05-26T08:13:15.596Z,2.08
2019-05-26T08:16:06.475Z,2.70
2019-05-26T08:18:56.715Z,1.77
2019-05-26T08:21:47.063Z,1.85
2019-05-26T08:24:37.197Z,1.90
2019-05-26T08:27:28.717Z,2.00
2019-05-26T08:30:19.949Z,2.22
2019-05-26T08:33:09.375Z,2.30
2019-05-26T08:35:59.511Z,2.17
2019-05-26T08:38:50.374Z,1.92
2019-05-26T08:41:40.590Z,2.15
2019-05-26T08:44:30.419Z,1.82
2019-05-26T08:47:20.091Z,2.02
2019-05-26T08:50:09.907Z,1.85
2019-05-26T08:52:59.446Z,1.70
2019-05-26T08:55:49.965Z,2.33
2019-05-26T08:58:39.903Z,1.85
2019-05-26T09:01:31.461Z,2.15
2019-05-26T09:04:20.880Z,2.20
2019-05-26T09:07:10.907Z,2.00
2019-05-26T09:10:00.740Z,2.00
2019-05-26T09:13:00.722Z,2.05
2019-05-26T09:15:45.892Z,1.92
2019-05-26T09:18:36.673Z,2.37
2019-05-26T09:21:26.577Z,1.82
2019-05-26T09:24:16.707Z,1.60
2019-05-26T09:27:06.731Z,2.02
2019-05-26T09:29:58.391Z,2.00
2019-05-26T09:32:48.440Z,2.30
2019-05-26T09:35:38.664Z,1.85
2019-05-26T09:38:28.970Z,1.92
2019-05-26T09:41:19.320Z,1.87
2019-05-26T09:44:09.751Z,2.72
2019-05-26T09:46:59.984Z,2.12
2019-05-26T09:49:50.256Z,1.75
2019-05-26T09:52:40.452Z,1.80
2019-05-26T09:55:30.782Z,1.87
2019-05-26T09:58:20.671Z,1.57
2019-05-26T10:01:10.398Z,2.00
2019-05-26T10:04:00.509Z,1.55
2019-05-26T10:06:50.311Z,1.90
2019-05-26T10:09:40.781Z,1.85
2019-05-26T10:12:32.596Z,2.25
2019-05-26T10:15:22.769Z,2.05
2019-05-26T10:18:12.651Z,2.20
2019-05-26T10:21:02.990Z,2.65
2019-05-26T10:23:53.438Z,2.25
2019-05-26T10:26:42.975Z,2.45
2019-05-26T10:29:32.897Z,3.25
2019-05-26T10:32:24.400Z,1.70
2019-05-26T10:35:15.366Z,2.22
2019-05-26T10:38:05.679Z,2.22
2019-05-26T10:40:56.455Z,2.00
2019-05-26T10:43:48.026Z,2.70
2019-05-26T10:46:38.155Z,1.90
2019-05-26T10:49:30.289Z,2.02
2019-05-26T10:52:20.556Z,1.87
2019-05-26T10:55:11.697Z,2.92
2019-05-26T10:58:01.372Z,2.00
2019-05-26T11:00:52.273Z,1.70
2019-05-26T11:03:41.921Z,2.37
2019-05-26T11:06:31.878Z,1.87
2019-05-26T11:09:23.289Z,2.27
2019-05-26T11:12:13.306Z,2.10
2019-05-26T11:15:02.983Z,1.90
2019-05-26T11:17:53.485Z,2.20
2019-05-26T11:20:43.620Z,1.60
2019-05-26T11:23:33.339Z,2.00
2019-05-26T11:26:22.842Z,1.95
2019-05-26T11:29:12.818Z,2.15
2019-05-26T11:32:02.767Z,1.62
2019-05-26T11:35:01.179Z,1.75
2019-05-26T11:37:44.002Z,2.47
2019-05-26T11:40:34.636Z,1.80
2019-05-26T11:43:25.189Z,1.82
2019-05-26T11:46:16.751Z,1.87
2019-05-26T11:49:07.736Z,1.85
2019-05-26T11:51:58.151Z,1.40
2019-05-26T11:54:48.311Z,1.37
2019-05-26T11:57:38.422Z,1.80
2019-05-26T12:00:29.952Z,1.60
2019-05-26T12:03:20.178Z,1.20
2019-05-26T12:06:10.469Z,1.50
2019-05-26T12:09:00.551Z,1.25
2019-05-26T12:11:52.718Z,1.20
2019-05-26T12:14:43.283Z,1.15
2019-05-26T12:17:34.790Z,0.80
2019-05-26T12:20:26.180Z,1.10
2019-05-26T12:23:16.771Z,0.90
2019-05-26T12:26:06.821Z,1.00
2019-05-26T12:28:56.735Z,1.00
2019-05-26T12:31:46.957Z,0.95
2019-05-26T12:34:37.195Z,1.15
2019-05-26T12:37:27.460Z,0.95
2019-05-26T12:40:17.637Z,1.40
2019-05-26T12:43:07.942Z,1.40
2019-05-26T12:45:57.531Z,1.47
2019-05-26T12:48:47.756Z,1.40
2019-05-26T12:51:37.244Z,1.75
2019-05-26T12:54:27.321Z,1.47
2019-05-26T12:57:17.215Z,1.80
2019-05-26T13:00:08.182Z,1.72
2019-05-26T13:03:01.163Z,1.50
2019-05-26T13:05:51.436Z,1.50
2019-05-26T13:08:41.711Z,2.30
2019-05-26T13:11:31.295Z,3.35
2019-05-26T13:14:21.195Z,4.03
2019-05-26T13:17:11.192Z,2.90
2019-05-26T13:20:01.231Z,4.17
2019-05-26T13:22:51.776Z,3.33
2019-05-26T13:25:42.296Z,3.00
2019-05-26T13:28:32.402Z,4.25
2019-05-26T13:31:21.781Z,3.87
2019-05-26T13:34:12.381Z,4.33
2019-05-26T13:37:03.436Z,4.67
2019-05-26T13:39:55.016Z,4.20
2019-05-26T13:42:45.215Z,3.00
2019-05-26T13:45:35.932Z,2.60
2019-05-26T13:48:26.216Z,3.35
2019-05-26T13:51:16.666Z,3.12
2019-05-26T13:54:07.764Z,3.17
2019-05-26T13:56:58.953Z,3.12
2019-05-26T13:59:48.786Z,2.63
2019-05-26T14:02:39.662Z,2.95
2019-05-26T14:05:29.665Z,2.98
2019-05-26T14:08:19.233Z,2.55
2019-05-26T14:11:09.869Z,2.58
2019-05-26T14:14:00.401Z,2.50
2019-05-26T14:16:52.722Z,2.80
2019-05-26T14:19:45.997Z,2.40
2019-05-26T14:22:37.516Z,2.58
2019-05-26T14:25:28.131Z,2.47
2019-05-26T14:28:18.707Z,2.73
2019-05-26T14:31:09.335Z,2.80
2019-05-26T14:33:59.263Z,2.40
2019-05-26T14:36:49.352Z,3.50
2019-05-26T14:39:41.337Z,2.80
2019-05-26T14:42:33.132Z,2.70
2019-05-26T14:45:22.970Z,2.62
2019-05-26T14:48:13.522Z,2.60
2019-05-26T14:51:03.999Z,2.75
2019-05-26T14:53:53.695Z,3.07
2019-05-26T14:56:44.254Z,2.90
2019-05-26T14:59:34.877Z,3.30
2019-05-26T15:02:25.349Z,2.98
2019-05-26T15:05:15.735Z,2.85
2019-05-26T15:08:06.821Z,3.02
2019-05-26T15:10:57.355Z,3.00
2019-05-26T15:13:47.233Z,2.50
2019-05-26T15:16:37.542Z,2.12
2019-05-26T15:19:27.776Z,2.12
2019-05-26T15:22:18.333Z,2.45
2019-05-26T15:25:09.185Z,2.27
2019-05-26T15:27:59.131Z,2.55
2019-05-26T15:30:49.809Z,2.70
2019-05-26T15:33:40.055Z,2.77
2019-05-26T15:36:30.670Z,2.52
2019-05-26T15:39:20.402Z,2.70
2019-05-26T15:42:11.011Z,2.87
2019-05-26T15:45:01.507Z,2.65
2019-05-26T15:47:51.658Z,3.22
2019-05-26T15:50:41.622Z,2.85
2019-05-26T15:53:32.419Z,3.37
2019-05-26T15:56:22.915Z,2.62
2019-05-26T15:59:15.351Z,3.20
2019-05-26T16:02:08.156Z,2.50
2019-05-26T16:04:59.108Z,2.98
2019-05-26T16:07:49.621Z,3.20
2019-05-26T16:10:39.911Z,3.15
2019-05-26T16:13:30.397Z,2.62
2019-05-26T16:16:20.435Z,2.42
2019-05-26T16:19:11.126Z,2.60
2019-05-26T16:22:01.480Z,2.35
2019-05-26T16:24:52.021Z,2.55
2019-05-26T16:27:42.319Z,2.22
2019-05-26T16:30:31.935Z,1.80
2019-05-26T16:33:21.715Z,2.02
2019-05-26T16:36:11.496Z,1.87
2019-05-26T16:39:02.111Z,2.08
2019-05-26T16:41:54.031Z,1.70
2019-05-26T16:44:44.835Z,1.92
2019-05-26T16:47:35.571Z,1.75
2019-05-26T16:50:27.053Z,1.62
2019-05-26T16:53:18.098Z,1.80
2019-05-26T16:56:09.411Z,1.47
2019-05-26T16:59:00.557Z,1.92
2019-05-26T17:01:53.356Z,1.30
2019-05-26T17:04:43.942Z,1.77
2019-05-26T17:07:34.192Z,1.67
2019-05-26T17:10:24.077Z,1.70
2019-05-26T17:13:14.710Z,1.80
2019-05-26T17:16:05.520Z,1.67
2019-05-26T17:18:56.371Z,1.70
2019-05-26T17:21:47.609Z,1.85
2019-05-26T17:24:37.891Z,1.50
2019-05-26T17:27:28.466Z,1.80
2019-05-26T17:30:22.005Z,1.70
2019-05-26T17:33:11.104Z,2.00
2019-05-26T17:36:01.376Z,2.00
2019-05-26T17:38:52.583Z,1.95
2019-05-26T17:41:43.576Z,2.37
2019-05-26T17:44:34.196Z,2.10
2019-05-26T17:47:30.453Z,2.12
2019-05-26T17:50:18.656Z,2.17
2019-05-26T17:53:10.134Z,2.58
2019-05-26T17:56:00.398Z,2.47
2019-05-26T17:58:50.980Z,2.60
2019-05-26T18:01:41.196Z,2.55
2019-05-26T18:04:32.707Z,2.87
2019-05-26T18:07:25.856Z,2.58
2019-05-26T18:10:17.441Z,2.65
2019-05-26T18:13:07.572Z,2.60
2019-05-26T18:15:57.520Z,2.37
2019-05-26T18:18:48.415Z,2.70
2019-05-26T18:21:39.294Z,2.65
2019-05-26T18:24:29.982Z,2.53
2019-05-26T18:27:20.396Z,3.10
2019-05-26T18:30:11.285Z,2.97
2019-05-26T18:33:01.523Z,2.90
2019-05-26T18:35:52.716Z,3.77
2019-05-26T18:38:43.318Z,3.67
2019-05-26T18:41:33.881Z,3.70
2019-05-26T18:44:24.413Z,3.43
2019-05-26T18:47:15.278Z,4.43
2019-05-26T18:50:06.131Z,3.90
2019-05-26T18:52:56.439Z,3.80
2019-05-26T18:55:46.691Z,4.23
2019-05-26T18:58:37.510Z,3.60
2019-05-26T19:01:28.800Z,4.43
2019-05-26T19:04:18.589Z,4.33
2019-05-26T19:07:10.185Z,3.83
2019-05-26T19:10:01.687Z,3.80
2019-05-26T19:12:52.889Z,3.43
2019-05-26T19:15:44.640Z,4.80
2019-05-26T19:18:37.206Z,4.33
2019-05-26T19:21:28.760Z,4.33
2019-05-26T19:24:20.648Z,4.13
2019-05-26T19:27:11.466Z,5.23
2019-05-26T19:30:02.450Z,4.27
2019-05-26T19:32:59.187Z,4.47
2019-05-26T19:35:49.409Z,4.40
2019-05-26T19:38:42.925Z,5.27
2019-05-26T19:41:34.021Z,4.73
2019-05-26T19:44:24.751Z,4.53
2019-05-26T19:47:15.410Z,4.73
2019-05-26T19:50:10.642Z,4.60
2019-05-26T19:53:01.293Z,4.60
2019-05-26T19:55:52.103Z,3.87
2019-05-26T19:58:45.211Z,3.90
2019-05-26T20:01:38.476Z,4.90
2019-05-26T20:04:29.356Z,4.27
2019-05-26T20:07:19.746Z,4.23
2019-05-26T20:10:11.708Z,4.67
2019-05-26T20:13:06.755Z,4.63
2019-05-26T20:15:57.280Z,4.53
2019-05-26T20:18:48.401Z,4.33
2019-05-26T20:21:39.675Z,4.23
2019-05-26T20:24:32.740Z,4.10
2019-05-26T20:27:23.330Z,4.13
2019-05-26T20:30:13.367Z,4.63
2019-05-26T20:33:04.430Z,4.17
2019-05-26T20:35:59.623Z,4.40
2019-05-26T20:38:52.589Z,4.90
2019-05-26T20:41:42.475Z,4.47
2019-05-26T20:44:32.894Z,3.80
2019-05-26T20:47:23.147Z,3.87
2019-05-26T20:50:28.146Z,4.60
2019-05-26T20:53:07.279Z,4.40
2019-05-26T20:55:58.160Z,4.07
2019-05-26T20:58:48.166Z,3.80
2019-05-26T21:01:38.656Z,3.90
2019-05-26T21:04:28.520Z,3.97
2019-05-26T21:07:19.144Z,4.17
2019-05-26T21:10:09.701Z,3.67
2019-05-26T21:13:00.235Z,4.67
2019-05-26T21:15:50.706Z,3.70
2019-05-26T21:18:41.671Z,4.43
2019-05-26T21:21:31.561Z,3.47
2019-05-26T21:24:21.538Z,3.57
2019-05-26T21:27:12.141Z,3.97
2019-05-26T21:30:02.373Z,3.57
2019-05-26T21:32:53.001Z,3.67
2019-05-26T21:35:43.290Z,3.37
2019-05-26T21:38:33.574Z,3.43
2019-05-26T21:41:23.709Z,3.77
2019-05-26T21:44:14.615Z,3.47
2019-05-26T21:47:04.236Z,3.77
2019-05-26T21:49:55.036Z,4.67
2019-05-26T21:52:45.868Z,2.53
2019-05-26T21:55:35.790Z,3.77
2019-05-26T21:58:25.820Z,4.27
2019-05-26T22:01:15.424Z,3.40
2019-05-26T22:04:05.001Z,3.30
2019-05-26T22:06:55.235Z,3.77
2019-05-26T22:09:45.068Z,3.40
2019-05-26T22:12:35.956Z,3.43
2019-05-26T22:15:25.832Z,3.17
2019-05-26T22:18:16.417Z,3.43
2019-05-26T22:21:06.416Z,3.77
2019-05-26T22:23:57.191Z,3.70
2019-05-26T22:26:47.634Z,4.23
2019-05-26T22:29:38.956Z,3.33
2019-05-26T22:32:29.363Z,4.47
2019-05-26T22:35:20.580Z,3.70
2019-05-26T22:38:11.271Z,3.50
2019-05-26T22:41:02.511Z,3.70
2019-05-26T22:43:52.511Z,3.67
2019-05-26T22:46:42.951Z,3.93
2019-05-26T22:49:32.778Z,3.80
2019-05-26T22:52:23.434Z,3.53
2019-05-26T22:55:13.696Z,3.60
2019-05-26T22:58:04.075Z,3.27
2019-05-26T23:00:53.913Z,3.93
2019-05-26T23:03:43.507Z,3.90
2019-05-26T23:06:33.996Z,4.30
2019-05-26T23:09:24.271Z,4.30
2019-05-26T23:12:14.820Z,4.13
2019-05-26T23:15:05.461Z,4.03
2019-05-26T23:17:55.938Z,3.50
2019-05-26T23:20:46.470Z,4.60
2019-05-26T23:23:36.540Z,4.00
2019-05-26T23:26:26.641Z,4.30
2019-05-26T23:29:16.426Z,3.63
2019-05-26T23:32:06.417Z,4.23
2019-05-26T23:34:57.230Z,4.17
2019-05-26T23:37:47.508Z,3.83
2019-05-26T23:40:37.954Z,3.67
2019-05-26T23:43:28.406Z,3.90
2019-05-26T23:46:19.150Z,3.57
2019-05-26T23:49:09.294Z,4.13
2019-05-26T23:52:00.071Z,4.47
2019-05-26T23:54:50.712Z,3.87
2019-05-26T23:57:41.515Z,3.90
